sensor_id;sensor_type;location;lat;lon;timestamp;temperature;humidity
25937;DHT22;13733;51.178;4.450;2022-10-16T00:00:34;14.40;99.90
25937;DHT22;13733;51.178;4.450;2022-10-16T00:03:00;14.40;99.90
25937;DHT22;13733;51.178;4.450;2022-10-16T00:05:29;14.40;99.90
25937;DHT22;13733;51.178;4.450;2022-10-16T00:07:55;14.40;99.90
25937;DHT22;13733;51.178;4.450;2022-10-16T00:10:22;14.40;99.90
25937;DHT22;13733;51.178;4.450;2022-10-16T00:12:47;14.60;99.90
25937;DHT22;13733;51.178;4.450;2022-10-16T00:15:14;14.70;99.90
25937;DHT22;13733;51.178;4.450;2022-10-16T00:17:40;14.60;99.90
25937;DHT22;13733;51.178;4.450;2022-10-16T00:20:06;14.50;99.90
25937;DHT22;13733;51.178;4.450;2022-10-16T00:22:32;14.50;99.90
25937;DHT22;13733;51.178;4.450;2022-10-16T00:24:58;14.50;99.90
25937;DHT22;13733;51.178;4.450;2022-10-16T00:27:24;14.40;99.90
25937;DHT22;13733;51.178;4.450;2022-10-16T00:29:52;14.30;99.90
25937;DHT22;13733;51.178;4.450;2022-10-16T00:32:19;14.30;99.90
25937;DHT22;13733;51.178;4.450;2022-10-16T00:34:45;14.20;99.90
25937;DHT22;13733;51.178;4.450;2022-10-16T00:37:12;14.20;99.90
25937;DHT22;13733;51.178;4.450;2022-10-16T00:39:39;14.20;99.90
25937;DHT22;13733;51.178;4.450;2022-10-16T00:42:04;14.30;99.90
25937;DHT22;13733;51.178;4.450;2022-10-16T00:44:44;14.20;99.90
25937;DHT22;13733;51.178;4.450;2022-10-16T00:47:13;14.10;99.90
25937;DHT22;13733;51.178;4.450;2022-10-16T00:49:39;14.10;99.90
25937;DHT22;13733;51.178;4.450;2022-10-16T00:52:05;14.10;99.90
25937;DHT22;13733;51.178;4.450;2022-10-16T00:54:32;14.10;99.90
25937;DHT22;13733;51.178;4.450;2022-10-16T00:57:01;14.10;99.90
25937;DHT22;13733;51.178;4.450;2022-10-16T00:59:31;14.10;99.90
25937;DHT22;13733;51.178;4.450;2022-10-16T01:02:01;14.20;99.90
25937;DHT22;13733;51.178;4.450;2022-10-16T01:04:35;14.10;99.90
25937;DHT22;13733;51.178;4.450;2022-10-16T01:07:06;14.10;99.90
25937;DHT22;13733;51.178;4.450;2022-10-16T01:15:27;14.00;99.90
25937;DHT22;13733;51.178;4.450;2022-10-16T01:20:30;13.90;99.90
25937;DHT22;13733;51.178;4.450;2022-10-16T01:23:10;13.90;99.90
25937;DHT22;13733;51.178;4.450;2022-10-16T01:28:16;13.80;99.90
25937;DHT22;13733;51.178;4.450;2022-10-16T01:30:44;13.80;99.90
25937;DHT22;13733;51.178;4.450;2022-10-16T01:33:17;13.80;99.90
25937;DHT22;13733;51.178;4.450;2022-10-16T01:35:48;13.80;99.90
25937;DHT22;13733;51.178;4.450;2022-10-16T01:38:31;13.80;99.90
25937;DHT22;13733;51.178;4.450;2022-10-16T01:41:10;13.70;99.90
25937;DHT22;13733;51.178;4.450;2022-10-16T01:43:38;13.60;99.90
25937;DHT22;13733;51.178;4.450;2022-10-16T01:46:07;13.80;99.90
25937;DHT22;13733;51.178;4.450;2022-10-16T01:48:34;13.70;99.90
25937;DHT22;13733;51.178;4.450;2022-10-16T01:51:07;13.60;99.90
25937;DHT22;13733;51.178;4.450;2022-10-16T01:53:36;13.60;99.90
25937;DHT22;13733;51.178;4.450;2022-10-16T01:56:05;13.60;99.90
25937;DHT22;13733;51.178;4.450;2022-10-16T01:58:35;13.50;99.90
25937;DHT22;13733;51.178;4.450;2022-10-16T02:01:04;13.60;99.90
25937;DHT22;13733;51.178;4.450;2022-10-16T02:03:32;13.50;99.90
25937;DHT22;13733;51.178;4.450;2022-10-16T02:05:59;13.50;99.90
25937;DHT22;13733;51.178;4.450;2022-10-16T02:08:28;13.70;99.90
25937;DHT22;13733;51.178;4.450;2022-10-16T02:10:57;13.70;99.90
25937;DHT22;13733;51.178;4.450;2022-10-16T02:13:48;13.60;99.90
25937;DHT22;13733;51.178;4.450;2022-10-16T02:16:16;13.70;99.90
25937;DHT22;13733;51.178;4.450;2022-10-16T02:18:43;13.70;99.90
25937;DHT22;13733;51.178;4.450;2022-10-16T02:21:23;13.60;99.90
25937;DHT22;13733;51.178;4.450;2022-10-16T02:26:29;13.50;99.90
25937;DHT22;13733;51.178;4.450;2022-10-16T02:29:01;13.50;99.90
25937;DHT22;13733;51.178;4.450;2022-10-16T02:31:34;13.50;99.90
25937;DHT22;13733;51.178;4.450;2022-10-16T02:34:02;13.50;99.90
25937;DHT22;13733;51.178;4.450;2022-10-16T02:36:32;13.50;99.90
25937;DHT22;13733;51.178;4.450;2022-10-16T02:38:58;13.50;99.90
25937;DHT22;13733;51.178;4.450;2022-10-16T02:41:26;13.40;99.90
25937;DHT22;13733;51.178;4.450;2022-10-16T02:43:52;13.40;99.90
25937;DHT22;13733;51.178;4.450;2022-10-16T02:46:20;13.40;99.90
25937;DHT22;13733;51.178;4.450;2022-10-16T02:48:46;13.40;99.90
25937;DHT22;13733;51.178;4.450;2022-10-16T02:51:12;13.50;99.90
25937;DHT22;13733;51.178;4.450;2022-10-16T02:53:38;13.50;99.90
25937;DHT22;13733;51.178;4.450;2022-10-16T02:56:04;13.50;99.90
25937;DHT22;13733;51.178;4.450;2022-10-16T02:58:30;13.40;99.90
25937;DHT22;13733;51.178;4.450;2022-10-16T03:00:55;13.40;99.90
25937;DHT22;13733;51.178;4.450;2022-10-16T03:03:21;13.40;99.90
25937;DHT22;13733;51.178;4.450;2022-10-16T03:05:47;13.40;99.90
25937;DHT22;13733;51.178;4.450;2022-10-16T03:08:13;13.40;99.90
25937;DHT22;13733;51.178;4.450;2022-10-16T03:10:39;13.50;99.90
25937;DHT22;13733;51.178;4.450;2022-10-16T03:13:04;13.50;99.90
25937;DHT22;13733;51.178;4.450;2022-10-16T03:15:30;13.50;99.90
25937;DHT22;13733;51.178;4.450;2022-10-16T03:17:59;13.40;99.90
25937;DHT22;13733;51.178;4.450;2022-10-16T03:20:25;13.40;99.90
25937;DHT22;13733;51.178;4.450;2022-10-16T03:22:52;13.40;99.90
25937;DHT22;13733;51.178;4.450;2022-10-16T03:25:17;13.50;99.90
25937;DHT22;13733;51.178;4.450;2022-10-16T03:27:43;13.50;99.90
25937;DHT22;13733;51.178;4.450;2022-10-16T03:30:09;13.40;99.90
25937;DHT22;13733;51.178;4.450;2022-10-16T03:32:36;13.40;99.90
25937;DHT22;13733;51.178;4.450;2022-10-16T03:35:02;13.50;99.90
25937;DHT22;13733;51.178;4.450;2022-10-16T03:37:28;13.50;99.90
25937;DHT22;13733;51.178;4.450;2022-10-16T03:39:53;13.70;99.90
25937;DHT22;13733;51.178;4.450;2022-10-16T03:42:19;13.80;99.90
25937;DHT22;13733;51.178;4.450;2022-10-16T03:44:45;13.70;99.90
25937;DHT22;13733;51.178;4.450;2022-10-16T03:47:10;13.70;99.90
25937;DHT22;13733;51.178;4.450;2022-10-16T03:49:36;13.70;99.90
25937;DHT22;13733;51.178;4.450;2022-10-16T03:52:02;13.60;99.90
25937;DHT22;13733;51.178;4.450;2022-10-16T03:54:27;13.60;99.90
25937;DHT22;13733;51.178;4.450;2022-10-16T03:56:53;13.50;99.90
25937;DHT22;13733;51.178;4.450;2022-10-16T03:59:19;13.60;99.90
25937;DHT22;13733;51.178;4.450;2022-10-16T04:01:45;13.60;99.90
25937;DHT22;13733;51.178;4.450;2022-10-16T04:04:10;13.60;99.90
25937;DHT22;13733;51.178;4.450;2022-10-16T04:06:36;13.60;99.90
25937;DHT22;13733;51.178;4.450;2022-10-16T04:09:02;13.50;99.90
25937;DHT22;13733;51.178;4.450;2022-10-16T04:11:27;13.50;99.90
25937;DHT22;13733;51.178;4.450;2022-10-16T04:13:53;13.50;99.90
25937;DHT22;13733;51.178;4.450;2022-10-16T04:16:19;13.50;99.90
25937;DHT22;13733;51.178;4.450;2022-10-16T04:18:44;13.40;99.90
25937;DHT22;13733;51.178;4.450;2022-10-16T04:21:11;13.40;99.90
25937;DHT22;13733;51.178;4.450;2022-10-16T04:23:37;13.50;99.90
25937;DHT22;13733;51.178;4.450;2022-10-16T04:26:03;13.60;99.90
25937;DHT22;13733;51.178;4.450;2022-10-16T04:28:29;13.50;99.90
25937;DHT22;13733;51.178;4.450;2022-10-16T04:30:55;13.40;99.90
25937;DHT22;13733;51.178;4.450;2022-10-16T04:33:20;13.40;99.90
25937;DHT22;13733;51.178;4.450;2022-10-16T04:35:46;13.40;99.90
25937;DHT22;13733;51.178;4.450;2022-10-16T04:38:13;13.40;99.90
25937;DHT22;13733;51.178;4.450;2022-10-16T04:40:39;13.30;99.90
25937;DHT22;13733;51.178;4.450;2022-10-16T04:43:05;13.30;99.90
25937;DHT22;13733;51.178;4.450;2022-10-16T04:45:31;13.50;99.90
25937;DHT22;13733;51.178;4.450;2022-10-16T04:47:58;13.50;99.90
25937;DHT22;13733;51.178;4.450;2022-10-16T04:50:24;13.50;99.90
25937;DHT22;13733;51.178;4.450;2022-10-16T04:53:04;13.50;99.90
25937;DHT22;13733;51.178;4.450;2022-10-16T04:55:30;13.40;99.90
25937;DHT22;13733;51.178;4.450;2022-10-16T04:57:55;13.30;99.90
25937;DHT22;13733;51.178;4.450;2022-10-16T05:00:23;13.30;99.90
25937;DHT22;13733;51.178;4.450;2022-10-16T05:02:52;13.20;99.90
25937;DHT22;13733;51.178;4.450;2022-10-16T05:05:18;13.10;99.90
25937;DHT22;13733;51.178;4.450;2022-10-16T05:07:45;13.10;99.90
25937;DHT22;13733;51.178;4.450;2022-10-16T05:10:11;13.10;99.90
25937;DHT22;13733;51.178;4.450;2022-10-16T05:12:37;13.10;99.90
25937;DHT22;13733;51.178;4.450;2022-10-16T05:15:03;13.20;99.90
25937;DHT22;13733;51.178;4.450;2022-10-16T05:17:29;13.20;99.90
25937;DHT22;13733;51.178;4.450;2022-10-16T05:19:55;13.10;99.90
25937;DHT22;13733;51.178;4.450;2022-10-16T05:22:20;13.10;99.90
25937;DHT22;13733;51.178;4.450;2022-10-16T05:24:46;13.10;99.90
25937;DHT22;13733;51.178;4.450;2022-10-16T05:27:12;13.00;99.90
25937;DHT22;13733;51.178;4.450;2022-10-16T05:29:45;13.00;99.90
25937;DHT22;13733;51.178;4.450;2022-10-16T05:32:13;12.90;99.90
25937;DHT22;13733;51.178;4.450;2022-10-16T05:34:39;13.00;99.90
25937;DHT22;13733;51.178;4.450;2022-10-16T05:37:05;13.00;99.90
25937;DHT22;13733;51.178;4.450;2022-10-16T05:39:31;12.90;99.90
25937;DHT22;13733;51.178;4.450;2022-10-16T05:41:56;12.90;99.90
25937;DHT22;13733;51.178;4.450;2022-10-16T05:44:22;13.00;99.90
25937;DHT22;13733;51.178;4.450;2022-10-16T05:46:50;12.90;99.90
25937;DHT22;13733;51.178;4.450;2022-10-16T05:49:15;12.90;99.90
25937;DHT22;13733;51.178;4.450;2022-10-16T05:51:41;12.90;99.90
25937;DHT22;13733;51.178;4.450;2022-10-16T05:54:07;12.80;99.90
25937;DHT22;13733;51.178;4.450;2022-10-16T05:56:33;12.80;99.90
25937;DHT22;13733;51.178;4.450;2022-10-16T05:58:59;12.90;99.90
25937;DHT22;13733;51.178;4.450;2022-10-16T06:01:24;12.90;99.90
25937;DHT22;13733;51.178;4.450;2022-10-16T06:03:51;13.00;99.90
25937;DHT22;13733;51.178;4.450;2022-10-16T06:06:21;13.00;99.90
25937;DHT22;13733;51.178;4.450;2022-10-16T06:08:49;13.10;99.90
25937;DHT22;13733;51.178;4.450;2022-10-16T06:11:26;13.10;99.90
25937;DHT22;13733;51.178;4.450;2022-10-16T06:13:54;13.10;99.90
25937;DHT22;13733;51.178;4.450;2022-10-16T06:16:22;13.20;99.90
25937;DHT22;13733;51.178;4.450;2022-10-16T06:18:51;13.20;99.90
25937;DHT22;13733;51.178;4.450;2022-10-16T06:21:19;13.20;99.90
25937;DHT22;13733;51.178;4.450;2022-10-16T06:23:46;13.40;99.90
25937;DHT22;13733;51.178;4.450;2022-10-16T06:26:14;13.40;99.90
25937;DHT22;13733;51.178;4.450;2022-10-16T06:28:41;13.30;99.90
25937;DHT22;13733;51.178;4.450;2022-10-16T06:31:08;13.50;99.90
25937;DHT22;13733;51.178;4.450;2022-10-16T06:33:35;13.50;99.90
25937;DHT22;13733;51.178;4.450;2022-10-16T06:36:06;13.40;99.90
25937;DHT22;13733;51.178;4.450;2022-10-16T06:38:34;13.30;99.90
25937;DHT22;13733;51.178;4.450;2022-10-16T06:41:00;13.20;99.90
25937;DHT22;13733;51.178;4.450;2022-10-16T06:43:28;13.20;99.90
25937;DHT22;13733;51.178;4.450;2022-10-16T06:45:56;13.20;99.90
25937;DHT22;13733;51.178;4.450;2022-10-16T06:48:23;13.40;99.90
25937;DHT22;13733;51.178;4.450;2022-10-16T06:53:21;13.30;99.90
25937;DHT22;13733;51.178;4.450;2022-10-16T06:55:47;13.30;99.90
25937;DHT22;13733;51.178;4.450;2022-10-16T06:58:13;13.20;99.90
25937;DHT22;13733;51.178;4.450;2022-10-16T07:00:38;13.30;99.90
25937;DHT22;13733;51.178;4.450;2022-10-16T07:03:04;13.30;99.90
25937;DHT22;13733;51.178;4.450;2022-10-16T07:05:30;13.30;99.90
25937;DHT22;13733;51.178;4.450;2022-10-16T07:07:56;13.50;99.90
25937;DHT22;13733;51.178;4.450;2022-10-16T07:10:22;13.50;99.90
25937;DHT22;13733;51.178;4.450;2022-10-16T07:12:49;13.50;99.90
25937;DHT22;13733;51.178;4.450;2022-10-16T07:15:15;13.50;99.90
25937;DHT22;13733;51.178;4.450;2022-10-16T07:17:42;13.50;99.90
25937;DHT22;13733;51.178;4.450;2022-10-16T07:20:08;13.60;99.90
25937;DHT22;13733;51.178;4.450;2022-10-16T07:22:34;13.60;99.90
25937;DHT22;13733;51.178;4.450;2022-10-16T07:25:00;13.60;99.90
25937;DHT22;13733;51.178;4.450;2022-10-16T07:27:25;13.70;99.90
25937;DHT22;13733;51.178;4.450;2022-10-16T07:29:51;13.80;99.90
25937;DHT22;13733;51.178;4.450;2022-10-16T07:32:17;13.90;99.90
25937;DHT22;13733;51.178;4.450;2022-10-16T07:34:43;14.00;99.90
25937;DHT22;13733;51.178;4.450;2022-10-16T07:37:09;14.00;99.90
25937;DHT22;13733;51.178;4.450;2022-10-16T07:39:35;14.00;99.90
25937;DHT22;13733;51.178;4.450;2022-10-16T07:42:00;14.00;99.90
25937;DHT22;13733;51.178;4.450;2022-10-16T07:44:26;14.10;99.90
25937;DHT22;13733;51.178;4.450;2022-10-16T07:46:52;14.10;99.90
25937;DHT22;13733;51.178;4.450;2022-10-16T07:49:18;14.40;99.90
25937;DHT22;13733;51.178;4.450;2022-10-16T07:51:43;14.40;99.90
25937;DHT22;13733;51.178;4.450;2022-10-16T07:54:10;14.40;99.90
25937;DHT22;13733;51.178;4.450;2022-10-16T07:56:35;14.40;99.90
25937;DHT22;13733;51.178;4.450;2022-10-16T07:59:01;14.40;99.90
25937;DHT22;13733;51.178;4.450;2022-10-16T08:01:27;14.60;99.90
25937;DHT22;13733;51.178;4.450;2022-10-16T08:03:53;14.70;99.90
25937;DHT22;13733;51.178;4.450;2022-10-16T08:06:20;14.70;99.90
25937;DHT22;13733;51.178;4.450;2022-10-16T08:08:46;14.90;99.90
25937;DHT22;13733;51.178;4.450;2022-10-16T08:11:13;15.10;99.90
25937;DHT22;13733;51.178;4.450;2022-10-16T08:13:40;15.30;99.90
25937;DHT22;13733;51.178;4.450;2022-10-16T08:16:07;15.20;99.90
25937;DHT22;13733;51.178;4.450;2022-10-16T08:18:37;15.10;99.90
25937;DHT22;13733;51.178;4.450;2022-10-16T08:21:03;15.20;99.90
25937;DHT22;13733;51.178;4.450;2022-10-16T08:23:30;15.40;99.90
25937;DHT22;13733;51.178;4.450;2022-10-16T08:26:03;15.40;99.90
25937;DHT22;13733;51.178;4.450;2022-10-16T08:28:29;15.70;99.90
25937;DHT22;13733;51.178;4.450;2022-10-16T08:31:14;15.60;99.90
25937;DHT22;13733;51.178;4.450;2022-10-16T08:33:42;15.60;99.90
25937;DHT22;13733;51.178;4.450;2022-10-16T08:36:10;15.60;99.90
25937;DHT22;13733;51.178;4.450;2022-10-16T08:38:35;15.80;99.90
25937;DHT22;13733;51.178;4.450;2022-10-16T08:44:23;16.20;99.90
25937;DHT22;13733;51.178;4.450;2022-10-16T08:47:25;16.20;99.90
25937;DHT22;13733;51.178;4.450;2022-10-16T08:50:00;16.10;99.90
25937;DHT22;13733;51.178;4.450;2022-10-16T08:52:33;16.20;99.90
25937;DHT22;13733;51.178;4.450;2022-10-16T08:55:01;16.30;99.90
25937;DHT22;13733;51.178;4.450;2022-10-16T08:57:27;16.40;99.90
25937;DHT22;13733;51.178;4.450;2022-10-16T08:59:55;16.30;99.90
25937;DHT22;13733;51.178;4.450;2022-10-16T09:02:44;16.40;99.90
25937;DHT22;13733;51.178;4.450;2022-10-16T09:08:09;16.30;99.90
25937;DHT22;13733;51.178;4.450;2022-10-16T09:11:23;16.20;99.90
25937;DHT22;13733;51.178;4.450;2022-10-16T09:16:49;16.60;99.90
25937;DHT22;13733;51.178;4.450;2022-10-16T09:19:31;16.70;99.90
25937;DHT22;13733;51.178;4.450;2022-10-16T09:22:08;16.60;99.90
25937;DHT22;13733;51.178;4.450;2022-10-16T09:24:35;16.50;99.90
25937;DHT22;13733;51.178;4.450;2022-10-16T09:27:01;16.50;99.90
25937;DHT22;13733;51.178;4.450;2022-10-16T09:29:27;16.50;99.90
25937;DHT22;13733;51.178;4.450;2022-10-16T09:31:55;16.60;99.90
25937;DHT22;13733;51.178;4.450;2022-10-16T09:34:32;16.80;99.90
25937;DHT22;13733;51.178;4.450;2022-10-16T09:37:00;16.90;99.90
25937;DHT22;13733;51.178;4.450;2022-10-16T09:39:28;17.10;99.90
25937;DHT22;13733;51.178;4.450;2022-10-16T09:41:55;17.20;99.90
25937;DHT22;13733;51.178;4.450;2022-10-16T09:44:28;17.20;99.90
25937;DHT22;13733;51.178;4.450;2022-10-16T09:47:24;17.30;99.90
25937;DHT22;13733;51.178;4.450;2022-10-16T09:50:20;17.50;99.90
25937;DHT22;13733;51.178;4.450;2022-10-16T09:52:47;17.50;99.90
25937;DHT22;13733;51.178;4.450;2022-10-16T09:55:15;17.40;99.90
25937;DHT22;13733;51.178;4.450;2022-10-16T09:57:52;17.40;99.90
25937;DHT22;13733;51.178;4.450;2022-10-16T10:00:19;17.60;99.90
25937;DHT22;13733;51.178;4.450;2022-10-16T10:02:45;17.80;99.90
25937;DHT22;13733;51.178;4.450;2022-10-16T10:05:25;18.00;99.90
25937;DHT22;13733;51.178;4.450;2022-10-16T10:08:02;18.10;99.90
25937;DHT22;13733;51.178;4.450;2022-10-16T10:10:40;18.30;99.90
25937;DHT22;13733;51.178;4.450;2022-10-16T10:13:19;18.70;99.90
25937;DHT22;13733;51.178;4.450;2022-10-16T10:15:47;19.00;99.90
25937;DHT22;13733;51.178;4.450;2022-10-16T10:18:18;19.20;99.90
25937;DHT22;13733;51.178;4.450;2022-10-16T10:20:45;19.60;99.90
25937;DHT22;13733;51.178;4.450;2022-10-16T10:23:21;19.80;99.90
25937;DHT22;13733;51.178;4.450;2022-10-16T10:28:52;20.40;99.90
25937;DHT22;13733;51.178;4.450;2022-10-16T10:36:46;20.10;99.90
25937;DHT22;13733;51.178;4.450;2022-10-16T10:39:39;20.20;99.90
25937;DHT22;13733;51.178;4.450;2022-10-16T10:42:28;20.50;99.90
25937;DHT22;13733;51.178;4.450;2022-10-16T10:45:28;20.90;99.90
25937;DHT22;13733;51.178;4.450;2022-10-16T10:50:49;20.50;99.90
25937;DHT22;13733;51.178;4.450;2022-10-16T10:53:33;20.40;99.90
25937;DHT22;13733;51.178;4.450;2022-10-16T10:58:50;20.90;99.90
25937;DHT22;13733;51.178;4.450;2022-10-16T11:01:30;20.90;99.90
25937;DHT22;13733;51.178;4.450;2022-10-16T11:06:50;21.40;99.90
25937;DHT22;13733;51.178;4.450;2022-10-16T11:09:22;21.70;99.90
25937;DHT22;13733;51.178;4.450;2022-10-16T11:11:58;22.50;99.90
25937;DHT22;13733;51.178;4.450;2022-10-16T11:17:01;23.40;99.90
25937;DHT22;13733;51.178;4.450;2022-10-16T11:19:49;24.20;99.90
25937;DHT22;13733;51.178;4.450;2022-10-16T11:22:39;24.90;97.80
25937;DHT22;13733;51.178;4.450;2022-10-16T11:25:28;25.00;96.20
25937;DHT22;13733;51.178;4.450;2022-10-16T11:28:18;25.10;94.00
25937;DHT22;13733;51.178;4.450;2022-10-16T11:36:31;26.40;87.90
25937;DHT22;13733;51.178;4.450;2022-10-16T11:39:21;27.00;84.00
25937;DHT22;13733;51.178;4.450;2022-10-16T11:41:51;26.80;81.80
25937;DHT22;13733;51.178;4.450;2022-10-16T11:49:32;27.30;78.80
25937;DHT22;13733;51.178;4.450;2022-10-16T11:52:29;27.90;78.70
25937;DHT22;13733;51.178;4.450;2022-10-16T11:55:02;28.20;71.80
25937;DHT22;13733;51.178;4.450;2022-10-16T11:57:57;29.00;69.70
25937;DHT22;13733;51.178;4.450;2022-10-16T12:00:31;29.70;63.80
25937;DHT22;13733;51.178;4.450;2022-10-16T12:03:27;28.90;63.30
25937;DHT22;13733;51.178;4.450;2022-10-16T12:06:19;28.90;63.20
25937;DHT22;13733;51.178;4.450;2022-10-16T12:08:49;29.50;62.10
25937;DHT22;13733;51.178;4.450;2022-10-16T12:14:19;31.50;55.30
25937;DHT22;13733;51.178;4.450;2022-10-16T12:20:00;31.10;52.40
25937;DHT22;13733;51.178;4.450;2022-10-16T12:22:29;30.90;53.00
25937;DHT22;13733;51.178;4.450;2022-10-16T12:24:56;30.90;52.50
25937;DHT22;13733;51.178;4.450;2022-10-16T12:27:29;31.40;51.40
25937;DHT22;13733;51.178;4.450;2022-10-16T12:30:00;31.90;48.90
25937;DHT22;13733;51.178;4.450;2022-10-16T12:32:37;32.20;48.30
25937;DHT22;13733;51.178;4.450;2022-10-16T12:35:16;31.70;49.80
25937;DHT22;13733;51.178;4.450;2022-10-16T12:37:44;31.70;50.00
25937;DHT22;13733;51.178;4.450;2022-10-16T12:40:26;31.30;49.00
25937;DHT22;13733;51.178;4.450;2022-10-16T12:42:53;30.40;51.00
25937;DHT22;13733;51.178;4.450;2022-10-16T12:45:31;30.20;51.80
25937;DHT22;13733;51.178;4.450;2022-10-16T12:47:58;30.40;52.00
25937;DHT22;13733;51.178;4.450;2022-10-16T12:50:31;31.00;51.10
25937;DHT22;13733;51.178;4.450;2022-10-16T12:52:57;31.20;49.10
25937;DHT22;13733;51.178;4.450;2022-10-16T12:55:24;30.50;49.90
25937;DHT22;13733;51.178;4.450;2022-10-16T13:00:56;30.20;50.90
25937;DHT22;13733;51.178;4.450;2022-10-16T13:22:32;27.50;55.00
25937;DHT22;13733;51.178;4.450;2022-10-16T13:25:13;27.20;58.20
25937;DHT22;13733;51.178;4.450;2022-10-16T13:30:28;27.50;57.90
25937;DHT22;13733;51.178;4.450;2022-10-16T13:33:30;27.40;59.00
25937;DHT22;13733;51.178;4.450;2022-10-16T13:35:54;27.00;59.30
25937;DHT22;13733;51.178;4.450;2022-10-16T13:38:23;26.50;60.40
25937;DHT22;13733;51.178;4.450;2022-10-16T13:40:56;25.70;63.50
25937;DHT22;13733;51.178;4.450;2022-10-16T13:43:38;25.40;68.10
25937;DHT22;13733;51.178;4.450;2022-10-16T13:46:10;25.30;69.20
25937;DHT22;13733;51.178;4.450;2022-10-16T13:48:37;25.30;69.80
25937;DHT22;13733;51.178;4.450;2022-10-16T13:51:17;25.40;69.00
25937;DHT22;13733;51.178;4.450;2022-10-16T13:53:43;25.70;69.20
25937;DHT22;13733;51.178;4.450;2022-10-16T13:56:15;26.30;67.90
25937;DHT22;13733;51.178;4.450;2022-10-16T13:58:42;26.40;68.40
25937;DHT22;13733;51.178;4.450;2022-10-16T14:03:40;26.00;69.30
25937;DHT22;13733;51.178;4.450;2022-10-16T14:06:12;26.50;68.10
25937;DHT22;13733;51.178;4.450;2022-10-16T14:08:43;27.10;66.50
25937;DHT22;13733;51.178;4.450;2022-10-16T14:11:10;26.80;67.80
25937;DHT22;13733;51.178;4.450;2022-10-16T14:13:43;26.80;66.80
25937;DHT22;13733;51.178;4.450;2022-10-16T14:16:11;26.50;66.30
25937;DHT22;13733;51.178;4.450;2022-10-16T14:18:41;26.40;67.50
25937;DHT22;13733;51.178;4.450;2022-10-16T14:21:13;25.90;69.40
25937;DHT22;13733;51.178;4.450;2022-10-16T14:23:40;25.40;71.50
25937;DHT22;13733;51.178;4.450;2022-10-16T14:26:13;25.00;75.50
25937;DHT22;13733;51.178;4.450;2022-10-16T14:28:40;24.60;78.50
25937;DHT22;13733;51.178;4.450;2022-10-16T14:31:28;24.50;79.80
25937;DHT22;13733;51.178;4.450;2022-10-16T14:33:55;24.30;82.40
25937;DHT22;13733;51.178;4.450;2022-10-16T14:36:22;24.40;84.90
25937;DHT22;13733;51.178;4.450;2022-10-16T14:39:04;24.10;86.80
25937;DHT22;13733;51.178;4.450;2022-10-16T14:41:32;24.00;88.60
25937;DHT22;13733;51.178;4.450;2022-10-16T14:44:04;24.10;88.00
25937;DHT22;13733;51.178;4.450;2022-10-16T14:46:38;24.10;89.80
25937;DHT22;13733;51.178;4.450;2022-10-16T14:51:38;23.90;90.80
25937;DHT22;13733;51.178;4.450;2022-10-16T14:54:08;23.80;91.30
25937;DHT22;13733;51.178;4.450;2022-10-16T14:59:54;23.40;93.10
25937;DHT22;13733;51.178;4.450;2022-10-16T15:02:09;23.20;94.00
25937;DHT22;13733;51.178;4.450;2022-10-16T15:04:42;22.90;95.40
25937;DHT22;13733;51.178;4.450;2022-10-16T15:07:08;22.70;96.70
25937;DHT22;13733;51.178;4.450;2022-10-16T15:09:33;22.60;97.10
25937;DHT22;13733;51.178;4.450;2022-10-16T15:11:59;22.40;98.10
25937;DHT22;13733;51.178;4.450;2022-10-16T15:14:25;22.20;99.60
25937;DHT22;13733;51.178;4.450;2022-10-16T15:16:51;22.00;99.70
25937;DHT22;13733;51.178;4.450;2022-10-16T15:19:16;21.90;99.90
25937;DHT22;13733;51.178;4.450;2022-10-16T15:21:42;21.80;99.90
25937;DHT22;13733;51.178;4.450;2022-10-16T15:24:12;21.70;99.90
25937;DHT22;13733;51.178;4.450;2022-10-16T15:26:39;21.70;99.90
25937;DHT22;13733;51.178;4.450;2022-10-16T15:29:05;21.60;99.90
25937;DHT22;13733;51.178;4.450;2022-10-16T15:31:31;21.50;99.90
25937;DHT22;13733;51.178;4.450;2022-10-16T15:33:57;21.50;99.90
25937;DHT22;13733;51.178;4.450;2022-10-16T15:36:35;21.50;99.90
25937;DHT22;13733;51.178;4.450;2022-10-16T15:39:16;21.50;99.90
25937;DHT22;13733;51.178;4.450;2022-10-16T15:41:43;21.50;99.90
25937;DHT22;13733;51.178;4.450;2022-10-16T15:44:09;21.40;99.90
25937;DHT22;13733;51.178;4.450;2022-10-16T15:46:35;21.30;99.90
25937;DHT22;13733;51.178;4.450;2022-10-16T15:49:02;21.20;99.90
25937;DHT22;13733;51.178;4.450;2022-10-16T15:51:29;21.20;99.90
25937;DHT22;13733;51.178;4.450;2022-10-16T15:53:59;21.10;99.90
25937;DHT22;13733;51.178;4.450;2022-10-16T15:56:30;21.00;99.90
25937;DHT22;13733;51.178;4.450;2022-10-16T15:58:59;20.90;99.90
25937;DHT22;13733;51.178;4.450;2022-10-16T16:01:26;20.90;99.90
25937;DHT22;13733;51.178;4.450;2022-10-16T16:03:53;20.80;99.90
25937;DHT22;13733;51.178;4.450;2022-10-16T16:06:19;20.80;99.90
25937;DHT22;13733;51.178;4.450;2022-10-16T16:08:45;20.80;99.90
25937;DHT22;13733;51.178;4.450;2022-10-16T16:11:14;20.70;99.90
25937;DHT22;13733;51.178;4.450;2022-10-16T16:13:41;20.60;99.90
25937;DHT22;13733;51.178;4.450;2022-10-16T16:16:12;20.50;99.90
25937;DHT22;13733;51.178;4.450;2022-10-16T16:18:39;20.40;99.90
25937;DHT22;13733;51.178;4.450;2022-10-16T16:21:05;20.30;99.90
25937;DHT22;13733;51.178;4.450;2022-10-16T16:23:31;20.30;99.90
25937;DHT22;13733;51.178;4.450;2022-10-16T16:28:35;20.20;99.90
25937;DHT22;13733;51.178;4.450;2022-10-16T16:31:01;20.00;99.90
25937;DHT22;13733;51.178;4.450;2022-10-16T16:33:27;19.90;99.90
25937;DHT22;13733;51.178;4.450;2022-10-16T16:35:59;19.90;99.90
25937;DHT22;13733;51.178;4.450;2022-10-16T16:38:25;19.80;99.90
25937;DHT22;13733;51.178;4.450;2022-10-16T16:40:52;19.80;99.90
25937;DHT22;13733;51.178;4.450;2022-10-16T16:43:18;19.80;99.90
25937;DHT22;13733;51.178;4.450;2022-10-16T16:45:44;19.70;99.90
25937;DHT22;13733;51.178;4.450;2022-10-16T16:48:10;19.70;99.90
25937;DHT22;13733;51.178;4.450;2022-10-16T16:50:36;19.70;99.90
25937;DHT22;13733;51.178;4.450;2022-10-16T16:53:02;19.60;99.90
25937;DHT22;13733;51.178;4.450;2022-10-16T16:55:28;19.60;99.90
25937;DHT22;13733;51.178;4.450;2022-10-16T16:57:55;19.60;99.90
25937;DHT22;13733;51.178;4.450;2022-10-16T17:00:22;19.50;99.90
25937;DHT22;13733;51.178;4.450;2022-10-16T17:02:49;19.50;99.90
25937;DHT22;13733;51.178;4.450;2022-10-16T17:05:15;19.50;99.90
25937;DHT22;13733;51.178;4.450;2022-10-16T17:07:41;19.40;99.90
25937;DHT22;13733;51.178;4.450;2022-10-16T17:10:08;19.30;99.90
25937;DHT22;13733;51.178;4.450;2022-10-16T17:12:34;19.30;99.90
25937;DHT22;13733;51.178;4.450;2022-10-16T17:15:01;19.30;99.90
25937;DHT22;13733;51.178;4.450;2022-10-16T17:17:27;19.30;99.90
25937;DHT22;13733;51.178;4.450;2022-10-16T17:19:53;19.30;99.90
25937;DHT22;13733;51.178;4.450;2022-10-16T17:22:19;19.30;99.90